Breclav, Czech Republic
Current Conditions -  °F | °C
As of 7:00 AM on Sunday 23 Nov 2014 (Local Time) from LKTB Reporting Station
Overcast Overcast  
Wind Chill: 38°   Ceiling: 2300
Heat Index: 41°   Visibility: 5mi
Dew Point: 37°   Wind: 5mph
Humidity: 87%   Direction: 80°E
Pressure: 30.33"   Gusts: NA
Location:  48.76°N, 16.89°E
Report Text: LKTB 230500Z 08004KT 8000 OVC023 05/03 Q1027 NOSIG
Loading
Personal Weather Stations






























Interactive Weather Map New forecast layout! Learn more

10-Day Weather Forecast

Advertisements
Track Severe Weather on mobile